Buckfastleigh, United Kingdom
Current Conditions -  °F | °C
As of 4:50 PM on Tuesday 27 Jan 2015 (Local Time) from EGTE Reporting Station
Broken Clouds Broken Clouds  
Wind Chill:   Ceiling: 2800
Heat Index:   Visibility: 6mi
Dew Point:   Wind: 5mph
Humidity: 71%   Direction: 270°W
Pressure: 30.3"   Gusts: NA
Location:  50.48°N, 3.78°W
Report Text: EGTE 271650Z 27004KT 9999 BKN028 08/03 Q1026
Loading
Personal Weather Stations






























Interactive Weather Map New forecast layout! Learn more

10-Day Weather Forecast

Advertisements
Track Severe Weather on mobile